createdAt,value
2018-07-02T00:01:57.984Z,76.70
2018-07-02T00:04:25.251Z,76.90
2018-07-02T00:07:04.203Z,76.30
2018-07-02T00:09:31.446Z,76.80
2018-07-02T00:11:58.694Z,77.70
2018-07-02T00:14:25.945Z,77.90
2018-07-02T00:16:53.194Z,77.90
2018-07-02T00:19:26.338Z,78.50
2018-07-02T00:21:53.610Z,77.90
2018-07-02T00:24:20.933Z,77.50
2018-07-02T00:26:48.173Z,78.00
2018-07-02T00:29:15.425Z,78.80
2018-07-02T00:31:42.690Z,78.60
2018-07-02T00:34:09.922Z,79.00
2018-07-02T00:36:37.158Z,79.30
2018-07-02T00:39:06.985Z,79.20
2018-07-02T00:44:01.456Z,80.30
2018-07-02T00:46:40.044Z,80.50
2018-07-02T00:49:07.506Z,80.70
2018-07-02T00:51:34.737Z,81.50
2018-07-02T00:54:02.241Z,82.80
2018-07-02T00:56:29.509Z,81.90
2018-07-02T00:58:56.776Z,82.60
2018-07-02T01:01:26.490Z,82.50
2018-07-02T01:03:54.469Z,82.50
2018-07-02T01:06:21.733Z,83.20
2018-07-02T01:08:49.000Z,83.60
2018-07-02T01:11:16.223Z,83.50
2018-07-02T01:13:43.492Z,83.50
2018-07-02T01:16:10.728Z,84.00
2018-07-02T01:18:37.986Z,84.70
2018-07-02T01:21:05.228Z,85.10
2018-07-02T01:23:32.477Z,85.50
2018-07-02T01:25:59.733Z,86.10
2018-07-02T01:28:26.990Z,86.60
2018-07-02T01:30:54.256Z,87.10
2018-07-02T01:33:21.497Z,88.10
2018-07-02T01:35:48.723Z,88.30
2018-07-02T01:38:15.995Z,88.60
2018-07-02T01:40:43.241Z,90.10
2018-07-02T01:45:37.741Z,90.10
2018-07-02T01:48:04.960Z,90.40
2018-07-02T01:50:32.212Z,90.70
2018-07-02T01:52:59.507Z,90.80
2018-07-02T01:55:26.756Z,91.10
2018-07-02T01:57:54.077Z,91.20
2018-07-02T02:00:21.306Z,91.50
2018-07-02T02:02:48.545Z,91.80
2018-07-02T02:05:15.801Z,92.20
2018-07-02T02:07:43.115Z,92.50
2018-07-02T02:10:10.347Z,92.70
2018-07-02T02:12:37.602Z,93.00
2018-07-02T02:15:05.509Z,93.30
2018-07-02T02:17:33.008Z,93.60
2018-07-02T02:20:00.241Z,93.70
2018-07-02T02:22:27.461Z,93.90
2018-07-02T02:27:21.949Z,94.40
2018-07-02T02:29:49.161Z,94.70
2018-07-02T02:32:16.399Z,94.50
2018-07-02T02:34:43.613Z,94.80
2018-07-02T02:37:10.861Z,95.00
2018-07-02T02:39:38.089Z,95.20
2018-07-02T02:42:05.574Z,95.40
2018-07-02T02:44:32.820Z,95.60
2018-07-02T02:47:00.089Z,95.90
2018-07-02T02:49:27.339Z,96.10
2018-07-02T02:51:54.892Z,96.10
2018-07-02T02:54:22.122Z,96.40
2018-07-02T02:56:49.342Z,96.50
2018-07-02T02:59:16.569Z,96.60
2018-07-02T03:01:43.785Z,96.80
2018-07-02T03:04:11.030Z,96.60
2018-07-02T03:06:38.288Z,96.60
2018-07-02T03:09:06.897Z,96.70
2018-07-02T03:11:34.125Z,97.00
2018-07-02T03:14:01.342Z,97.10
2018-07-02T03:16:28.609Z,97.20
2018-07-02T03:18:55.814Z,97.40
2018-07-02T03:21:23.009Z,97.70
2018-07-02T03:23:50.191Z,98.00
2018-07-02T03:26:17.357Z,98.10
2018-07-02T03:28:44.541Z,98.50
2018-07-02T03:31:11.721Z,98.50
2018-07-02T03:33:38.897Z,98.70
2018-07-02T03:36:06.260Z,98.80
2018-07-02T03:38:33.437Z,98.70
2018-07-02T03:41:00.644Z,98.60
2018-07-02T03:43:27.813Z,98.50
2018-07-02T03:45:55.014Z,98.90
2018-07-02T03:48:22.197Z,98.50
2018-07-02T03:50:49.384Z,98.90
2018-07-02T03:53:16.612Z,99.10
2018-07-02T03:55:43.816Z,99.30
2018-07-02T03:58:11.013Z,99.10
2018-07-02T04:00:38.209Z,99.40
2018-07-02T04:03:06.528Z,99.70
2018-07-02T04:05:36.600Z,99.80
2018-07-02T04:08:06.443Z,99.80
2018-07-02T04:10:33.680Z,99.90
2018-07-02T04:13:00.911Z,99.90
2018-07-02T04:15:28.188Z,99.90
2018-07-02T04:17:55.528Z,99.90
2018-07-02T04:20:22.814Z,99.90
2018-07-02T04:22:50.021Z,99.90
2018-07-02T04:25:17.193Z,99.90
2018-07-02T04:27:44.369Z,99.90
2018-07-02T04:30:11.540Z,99.90
2018-07-02T04:32:38.774Z,99.90
2018-07-02T04:35:06.078Z,99.90
2018-07-02T04:37:33.266Z,99.90
2018-07-02T04:40:00.440Z,99.90
2018-07-02T04:42:27.618Z,99.10
2018-07-02T04:44:54.788Z,99.50
2018-07-02T04:47:21.957Z,99.90
2018-07-02T04:49:49.118Z,99.90
2018-07-02T04:52:16.516Z,99.90
2018-07-02T04:54:43.717Z,99.90
2018-07-02T04:57:10.887Z,99.60
2018-07-02T04:59:38.189Z,99.50
2018-07-02T05:02:05.281Z,99.70
2018-07-02T05:04:32.441Z,99.50
2018-07-02T05:06:59.629Z,99.00
2018-07-02T05:09:26.784Z,99.60
2018-07-02T05:11:53.953Z,99.20
2018-07-02T05:14:21.125Z,99.00
2018-07-02T05:16:48.304Z,98.40
2018-07-02T05:19:15.528Z,98.60
2018-07-02T05:21:42.737Z,98.40
2018-07-02T05:24:09.942Z,99.00
2018-07-02T05:26:37.177Z,99.10
2018-07-02T05:29:04.398Z,97.90
2018-07-02T05:31:31.620Z,98.30
2018-07-02T05:33:58.835Z,98.70
2018-07-02T05:36:26.053Z,99.30
2018-07-02T05:38:53.309Z,98.20
2018-07-02T05:41:20.505Z,97.90
2018-07-02T05:43:47.856Z,96.90
2018-07-02T05:46:14.964Z,98.20
2018-07-02T05:48:42.244Z,96.80
2018-07-02T05:51:09.528Z,97.20
2018-07-02T05:53:36.746Z,97.50
2018-07-02T05:56:04.031Z,96.70
2018-07-02T05:58:31.246Z,96.60
2018-07-02T06:00:58.488Z,96.40
2018-07-02T06:03:25.737Z,97.10
2018-07-02T06:05:52.953Z,96.90
2018-07-02T06:08:20.176Z,96.10
2018-07-02T06:10:47.368Z,96.30
2018-07-02T06:13:14.636Z,95.70
2018-07-02T06:15:41.803Z,94.90
2018-07-02T06:18:08.999Z,95.40
2018-07-02T06:20:36.233Z,95.10
2018-07-02T06:23:03.494Z,94.80
2018-07-02T06:25:30.707Z,95.50
2018-07-02T06:27:57.950Z,94.90
2018-07-02T06:30:25.228Z,95.50
2018-07-02T06:32:52.833Z,93.70
2018-07-02T06:35:20.032Z,94.80
2018-07-02T06:37:47.249Z,94.00
2018-07-02T06:40:14.446Z,93.50
2018-07-02T06:45:08.948Z,92.90
2018-07-02T06:47:36.544Z,93.50
2018-07-02T06:50:03.997Z,94.70
2018-07-02T06:52:31.229Z,91.60
2018-07-02T06:54:58.720Z,91.30
2018-07-02T06:57:25.949Z,90.20
2018-07-02T06:59:53.145Z,82.90
2018-07-02T07:02:20.355Z,77.70
2018-07-02T07:04:47.575Z,69.70
2018-07-02T07:07:14.785Z,64.30
2018-07-02T07:09:42.010Z,61.70
2018-07-02T07:12:09.238Z,59.00
2018-07-02T07:14:36.456Z,57.00
2018-07-02T07:17:03.696Z,53.40
2018-07-02T07:19:30.875Z,53.00
2018-07-02T07:21:58.108Z,51.00
2018-07-02T07:24:25.264Z,51.60
2018-07-02T07:26:52.793Z,50.00
2018-07-02T07:29:20.054Z,49.60
2018-07-02T07:31:47.221Z,50.20
2018-07-02T07:34:14.388Z,48.60
2018-07-02T07:36:41.550Z,47.70
2018-07-02T07:41:37.072Z,46.50
2018-07-02T07:44:04.298Z,46.70
2018-07-02T07:46:31.445Z,48.40
2018-07-02T07:48:58.634Z,48.20
2018-07-02T07:51:25.784Z,47.00
2018-07-02T07:53:52.956Z,47.70
2018-07-02T07:56:20.154Z,47.80
2018-07-02T07:58:47.323Z,45.00
2018-07-02T08:03:41.746Z,45.40
2018-07-02T08:06:08.908Z,43.40
2018-07-02T08:08:36.090Z,44.60
2018-07-02T08:11:03.317Z,43.40
2018-07-02T08:13:30.491Z,44.40
2018-07-02T08:15:57.673Z,43.30
2018-07-02T08:18:24.840Z,45.40
2018-07-02T08:20:52.059Z,42.90
2018-07-02T08:23:19.324Z,43.00
2018-07-02T08:25:46.536Z,42.20
2018-07-02T08:28:13.749Z,41.50
2018-07-02T08:30:40.969Z,42.40
2018-07-02T08:33:08.212Z,42.00
2018-07-02T08:35:35.427Z,42.60
2018-07-02T08:38:02.810Z,41.40
2018-07-02T08:40:30.049Z,41.80
2018-07-02T08:42:57.254Z,41.90
2018-07-02T08:45:24.477Z,40.70
2018-07-02T08:47:51.713Z,40.30
2018-07-02T08:50:18.920Z,39.90
2018-07-02T08:52:46.146Z,39.40
2018-07-02T08:55:13.386Z,40.80
2018-07-02T08:57:40.606Z,41.30
2018-07-02T09:00:07.882Z,38.50
2018-07-02T09:02:35.112Z,38.40
2018-07-02T09:05:02.357Z,40.30
2018-07-02T09:07:29.558Z,40.40
2018-07-02T09:09:56.783Z,40.80
2018-07-02T09:14:51.422Z,38.80
2018-07-02T09:17:18.476Z,37.60
2018-07-02T09:19:45.657Z,37.30
2018-07-02T09:22:12.824Z,38.20
2018-07-02T09:24:39.990Z,38.50
2018-07-02T09:27:07.141Z,38.40
2018-07-02T09:29:34.481Z,39.80
2018-07-02T09:32:01.648Z,38.00
2018-07-02T09:34:28.800Z,37.70
2018-07-02T09:36:55.993Z,38.10
2018-07-02T09:39:23.174Z,38.90
2018-07-02T09:41:50.337Z,35.00
2018-07-02T09:44:17.489Z,38.10
2018-07-02T09:46:44.662Z,37.40
2018-07-02T09:49:11.814Z,36.80
2018-07-02T09:51:39.040Z,37.30
2018-07-02T09:54:06.325Z,36.30
2018-07-02T09:56:33.504Z,36.60
2018-07-02T09:59:00.831Z,36.90
2018-07-02T10:01:27.900Z,37.00
2018-07-02T10:03:55.060Z,37.20
2018-07-02T10:06:22.684Z,36.70
2018-07-02T10:08:49.809Z,37.50
2018-07-02T10:11:16.970Z,38.30
2018-07-02T10:13:44.132Z,37.30
2018-07-02T10:16:11.294Z,36.70
2018-07-02T10:18:38.469Z,36.00
2018-07-02T10:21:06.139Z,33.50
2018-07-02T10:23:37.334Z,34.70
2018-07-02T10:26:00.546Z,33.30
2018-07-02T10:28:27.645Z,36.50
2018-07-02T10:30:54.854Z,34.30
2018-07-02T10:33:22.009Z,36.60
2018-07-02T10:35:49.168Z,37.80
2018-07-02T10:38:16.328Z,35.40
2018-07-02T10:40:43.501Z,38.30
2018-07-02T10:43:10.660Z,37.00
2018-07-02T10:45:37.806Z,37.90
2018-07-02T10:48:04.989Z,36.70
2018-07-02T10:50:32.158Z,35.30
2018-07-02T10:52:59.322Z,35.90
2018-07-02T10:55:26.508Z,34.90
2018-07-02T10:57:53.696Z,33.80
2018-07-02T11:00:20.889Z,35.20
2018-07-02T11:02:48.065Z,33.10
2018-07-02T11:05:15.233Z,36.00
2018-07-02T11:07:42.409Z,35.70
2018-07-02T11:10:09.565Z,35.80
2018-07-02T11:12:36.744Z,35.50
2018-07-02T11:15:04.149Z,34.60
2018-07-02T11:17:31.305Z,34.40
2018-07-02T11:19:58.489Z,34.50
2018-07-02T11:22:25.651Z,34.40
2018-07-02T11:24:53.025Z,34.60
2018-07-02T11:27:20.204Z,35.10
2018-07-02T11:29:47.373Z,35.90
2018-07-02T11:32:14.528Z,36.10
2018-07-02T11:34:41.706Z,37.00
2018-07-02T11:37:08.872Z,33.80
2018-07-02T11:39:36.030Z,36.80
2018-07-02T11:42:03.211Z,35.90
2018-07-02T11:44:30.723Z,36.50
2018-07-02T11:46:57.868Z,35.70
2018-07-02T11:49:25.029Z,36.00
2018-07-02T11:51:52.408Z,35.00
2018-07-02T11:54:19.604Z,33.90
2018-07-02T11:56:46.755Z,33.00
2018-07-02T11:59:13.932Z,36.50
2018-07-02T12:01:41.109Z,34.60
2018-07-02T12:06:35.458Z,34.90
2018-07-02T12:09:03.890Z,35.00
2018-07-02T12:11:31.078Z,34.80
2018-07-02T12:13:58.237Z,34.90
2018-07-02T12:16:25.414Z,32.90
2018-07-02T12:18:52.580Z,33.40
2018-07-02T12:21:19.746Z,33.20
2018-07-02T12:23:46.903Z,34.90
2018-07-02T12:26:14.108Z,34.40
2018-07-02T12:28:41.245Z,34.10
2018-07-02T12:31:08.428Z,34.50
2018-07-02T12:33:35.691Z,35.70
2018-07-02T12:36:02.786Z,34.80
2018-07-02T12:38:29.939Z,34.00
2018-07-02T12:40:57.101Z,33.50
2018-07-02T12:43:24.256Z,33.60
2018-07-02T12:45:51.513Z,34.40
2018-07-02T12:48:18.665Z,34.40
2018-07-02T12:50:45.908Z,34.30
2018-07-02T12:53:13.073Z,33.40
2018-07-02T12:55:40.244Z,34.00
2018-07-02T12:58:07.430Z,33.70
2018-07-02T13:00:34.608Z,35.50
2018-07-02T13:03:01.775Z,32.80
2018-07-02T13:05:29.082Z,33.40
2018-07-02T13:07:56.237Z,35.30
2018-07-02T13:10:23.434Z,34.90
2018-07-02T13:12:50.625Z,35.50
2018-07-02T13:15:17.792Z,34.60
2018-07-02T13:17:44.961Z,33.80
2018-07-02T13:20:12.184Z,33.30
2018-07-02T13:22:39.394Z,32.00
2018-07-02T13:25:06.619Z,32.30
2018-07-02T13:27:33.849Z,37.10
2018-07-02T13:30:01.078Z,33.70
2018-07-02T13:32:28.282Z,33.20
2018-07-02T13:34:55.480Z,32.40
2018-07-02T13:37:22.690Z,33.90
2018-07-02T13:39:49.967Z,35.60
2018-07-02T13:42:17.188Z,34.70
2018-07-02T13:44:44.385Z,34.00
2018-07-02T13:47:11.613Z,34.80
2018-07-02T13:52:06.012Z,32.80
2018-07-02T13:54:33.253Z,33.00
2018-07-02T13:57:00.501Z,35.00
2018-07-02T13:59:27.721Z,34.40
2018-07-02T14:01:54.932Z,34.00
2018-07-02T14:04:22.132Z,32.90
2018-07-02T14:06:49.350Z,32.90
2018-07-02T14:09:16.553Z,32.30
2018-07-02T14:11:43.770Z,32.60
2018-07-02T14:14:10.989Z,32.80
2018-07-02T14:16:38.200Z,33.20
2018-07-02T14:19:05.748Z,31.90
2018-07-02T14:21:33.017Z,35.60
2018-07-02T14:24:00.177Z,34.40
2018-07-02T14:26:27.349Z,33.10
2018-07-02T14:28:54.548Z,35.70
2018-07-02T14:31:21.724Z,33.00
2018-07-02T14:33:48.876Z,32.50
2018-07-02T14:36:16.029Z,32.50
2018-07-02T14:38:43.220Z,32.70
2018-07-02T14:41:10.397Z,33.60
2018-07-02T14:43:38.014Z,32.70
2018-07-02T14:46:05.252Z,33.10
2018-07-02T14:50:59.858Z,32.40
2018-07-02T14:53:27.057Z,32.10
2018-07-02T14:55:54.272Z,34.40
2018-07-02T14:58:21.509Z,33.40
2018-07-02T15:00:48.792Z,36.40
2018-07-02T15:03:16.014Z,33.80
2018-07-02T15:05:43.221Z,32.80
2018-07-02T15:08:10.812Z,33.40
2018-07-02T15:10:38.037Z,33.30
2018-07-02T15:13:05.264Z,32.10
2018-07-02T15:15:32.523Z,32.20
2018-07-02T15:17:59.716Z,32.90
2018-07-02T15:20:26.958Z,33.60
2018-07-02T15:22:54.450Z,34.10
2018-07-02T15:25:21.613Z,32.80
2018-07-02T15:27:48.817Z,31.80
2018-07-02T15:30:16.046Z,32.10
2018-07-02T15:32:43.253Z,34.50
2018-07-02T15:35:10.488Z,32.70
2018-07-02T15:37:37.681Z,32.10
2018-07-02T15:40:04.945Z,32.80
2018-07-02T15:42:32.152Z,31.90
2018-07-02T15:44:59.884Z,33.00
2018-07-02T15:47:27.112Z,33.80
2018-07-02T15:49:54.353Z,32.80
2018-07-02T15:52:21.561Z,32.40
2018-07-02T15:54:48.777Z,31.60
2018-07-02T15:57:16.029Z,31.00
2018-07-02T15:59:43.238Z,32.50
2018-07-02T16:02:10.444Z,32.80
2018-07-02T16:04:37.758Z,32.70
2018-07-02T16:07:04.980Z,33.30
2018-07-02T16:09:32.187Z,33.10
2018-07-02T16:11:59.388Z,33.60
2018-07-02T16:14:26.624Z,33.10
2018-07-02T16:16:53.843Z,32.50
2018-07-02T16:19:21.063Z,33.80
2018-07-02T16:21:48.260Z,33.30
2018-07-02T16:24:15.578Z,32.90
2018-07-02T16:26:42.786Z,33.10
2018-07-02T16:29:10.013Z,32.80
2018-07-02T16:31:37.292Z,32.70
2018-07-02T16:34:04.649Z,33.10
2018-07-02T16:36:31.906Z,33.10
2018-07-02T16:38:59.110Z,33.50
2018-07-02T16:41:26.473Z,32.80
2018-07-02T16:43:53.728Z,33.10
2018-07-02T16:46:20.945Z,33.10
2018-07-02T16:48:48.173Z,33.10
2018-07-02T16:51:15.508Z,34.10
2018-07-02T16:53:42.725Z,34.30
2018-07-02T16:56:09.940Z,33.40
2018-07-02T16:58:37.132Z,33.50
2018-07-02T17:01:05.230Z,33.30
2018-07-02T17:03:32.504Z,34.30
2018-07-02T17:05:59.804Z,34.30
2018-07-02T17:08:27.132Z,35.80
2018-07-02T17:10:54.334Z,34.90
2018-07-02T17:13:21.597Z,34.70
2018-07-02T17:15:48.812Z,35.30
2018-07-02T17:18:16.041Z,35.00
2018-07-02T17:20:43.268Z,36.20
2018-07-02T17:23:10.474Z,35.80
2018-07-02T17:25:37.633Z,36.70
2018-07-02T17:28:05.069Z,38.60
2018-07-02T17:30:32.274Z,38.70
2018-07-02T17:32:59.424Z,40.40
2018-07-02T17:35:27.397Z,40.00
2018-07-02T17:37:54.585Z,40.90
2018-07-02T17:40:21.756Z,40.90
2018-07-02T17:42:48.915Z,42.10
2018-07-02T17:45:16.082Z,42.30
2018-07-02T17:47:43.244Z,41.90
2018-07-02T17:50:10.432Z,42.50
2018-07-02T17:52:37.587Z,43.40
2018-07-02T17:57:32.265Z,43.80
2018-07-02T17:59:59.425Z,44.20
2018-07-02T18:02:26.613Z,45.20
2018-07-02T18:04:53.772Z,45.30
2018-07-02T18:07:21.013Z,45.00
2018-07-02T18:09:48.252Z,45.80
2018-07-02T18:14:42.576Z,45.30
2018-07-02T18:17:09.764Z,46.00
2018-07-02T18:19:36.953Z,46.30
2018-07-02T18:22:04.159Z,46.70
2018-07-02T18:24:31.374Z,47.30
2018-07-02T18:26:58.748Z,47.10
2018-07-02T18:29:25.916Z,47.60
2018-07-02T18:31:53.098Z,48.30
2018-07-02T18:34:20.265Z,49.00
2018-07-02T18:39:14.665Z,48.80
2018-07-02T18:41:41.858Z,49.30
2018-07-02T18:44:09.045Z,49.40
2018-07-02T18:46:36.556Z,49.80
2018-07-02T18:49:04.275Z,50.70
2018-07-02T18:51:31.551Z,50.70
2018-07-02T18:54:03.012Z,50.70
2018-07-02T18:56:32.063Z,50.60
2018-07-02T18:59:01.986Z,50.80
2018-07-02T19:01:29.228Z,50.80
2018-07-02T19:03:56.453Z,50.40
2018-07-02T19:06:23.682Z,50.40
2018-07-02T19:08:50.875Z,50.20
2018-07-02T19:11:18.061Z,49.90
2018-07-02T19:13:45.501Z,50.20
2018-07-02T19:16:12.694Z,50.00
2018-07-02T19:18:39.848Z,49.70
2018-07-02T19:23:34.449Z,49.70
2018-07-02T19:26:01.689Z,50.40
2018-07-02T19:28:29.005Z,49.50
2018-07-02T19:30:56.241Z,49.80
2018-07-02T19:33:23.491Z,49.20
2018-07-02T19:35:50.745Z,49.10
2018-07-02T19:38:17.993Z,49.50
2018-07-02T19:40:47.134Z,49.30
2018-07-02T19:43:15.025Z,49.90
2018-07-02T19:45:42.264Z,49.60
2018-07-02T19:48:09.485Z,49.80
2018-07-02T19:50:36.699Z,50.00
2018-07-02T19:53:03.993Z,51.10
2018-07-02T19:55:31.420Z,50.00
2018-07-02T19:57:58.789Z,50.00
2018-07-02T20:00:26.055Z,50.10
2018-07-02T20:02:53.336Z,50.50
2018-07-02T20:05:20.505Z,50.70
2018-07-02T20:07:47.729Z,50.60
2018-07-02T20:10:15.232Z,51.00
2018-07-02T20:12:42.492Z,51.00
2018-07-02T20:15:09.749Z,51.50
2018-07-02T20:17:36.976Z,51.70
2018-07-02T20:20:07.336Z,52.10
2018-07-02T20:22:34.506Z,51.90
2018-07-02T20:25:01.680Z,51.80
2018-07-02T20:27:28.898Z,52.30
2018-07-02T20:29:56.096Z,52.40
2018-07-02T20:32:23.267Z,52.10
2018-07-02T20:34:50.500Z,52.20
2018-07-02T20:37:17.649Z,52.90
2018-07-02T20:39:45.085Z,53.10
2018-07-02T20:42:12.334Z,53.00
2018-07-02T20:44:39.492Z,53.00
2018-07-02T20:47:06.680Z,53.20
2018-07-02T20:49:34.141Z,52.80
2018-07-02T20:52:01.499Z,52.90
2018-07-02T20:54:28.682Z,53.20
2018-07-02T20:56:55.877Z,53.20
2018-07-02T20:59:23.032Z,53.50
2018-07-02T21:01:50.316Z,53.70
2018-07-02T21:04:17.480Z,53.40
2018-07-02T21:06:44.650Z,53.30
2018-07-02T21:09:11.833Z,53.50
2018-07-02T21:11:39.049Z,53.60
2018-07-02T21:14:06.605Z,53.60
2018-07-02T21:16:34.085Z,53.80
2018-07-02T21:19:01.442Z,53.50
2018-07-02T21:21:28.635Z,53.10
2018-07-02T21:23:55.960Z,52.50
2018-07-02T21:26:23.184Z,52.50
2018-07-02T21:28:50.459Z,52.60
2018-07-02T21:31:17.712Z,52.40
2018-07-02T21:33:44.967Z,52.50
2018-07-02T21:36:12.185Z,52.40
2018-07-02T21:38:39.402Z,52.60
2018-07-02T21:41:06.653Z,52.80
2018-07-02T21:43:33.891Z,53.20
2018-07-02T21:46:01.123Z,53.00
2018-07-02T21:48:28.406Z,53.00
2018-07-02T21:50:55.580Z,53.10
2018-07-02T21:53:22.836Z,53.40
2018-07-02T21:55:50.057Z,53.10
2018-07-02T21:58:17.253Z,53.10
2018-07-02T22:00:45.093Z,53.60
2018-07-02T22:03:12.321Z,54.30
2018-07-02T22:05:39.781Z,53.70
2018-07-02T22:08:07.021Z,53.70
2018-07-02T22:10:34.265Z,53.90
2018-07-02T22:13:01.593Z,53.70
2018-07-02T22:15:28.815Z,53.70
2018-07-02T22:17:56.045Z,54.60
2018-07-02T22:20:23.256Z,53.90
2018-07-02T22:22:50.470Z,53.90
2018-07-02T22:25:17.735Z,53.90
2018-07-02T22:27:45.185Z,53.70
2018-07-02T22:30:12.444Z,53.80
2018-07-02T22:32:39.652Z,54.00
2018-07-02T22:35:06.889Z,53.60
2018-07-02T22:37:34.123Z,53.60
2018-07-02T22:40:01.358Z,53.80
2018-07-02T22:42:28.596Z,53.80
2018-07-02T22:44:55.791Z,53.80
2018-07-02T22:47:23.015Z,53.70
2018-07-02T22:52:17.453Z,53.90
2018-07-02T22:54:44.692Z,53.70
2018-07-02T22:57:11.939Z,53.80
2018-07-02T22:59:39.149Z,54.10
2018-07-02T23:02:06.380Z,53.70
2018-07-02T23:04:33.593Z,53.80
2018-07-02T23:07:00.809Z,53.60
2018-07-02T23:09:28.019Z,53.50
2018-07-02T23:11:55.231Z,53.50
2018-07-02T23:14:22.453Z,53.50
2018-07-02T23:16:49.666Z,53.90
2018-07-02T23:19:16.909Z,53.70
2018-07-02T23:21:44.253Z,54.10
2018-07-02T23:24:11.673Z,54.50
2018-07-02T23:26:38.869Z,54.60
2018-07-02T23:29:06.083Z,54.20
2018-07-02T23:34:00.479Z,54.70
2018-07-02T23:36:27.703Z,54.00
2018-07-02T23:38:54.914Z,54.00
2018-07-02T23:41:22.122Z,53.90
2018-07-02T23:43:49.350Z,54.20
2018-07-02T23:46:16.561Z,54.00
2018-07-02T23:48:43.781Z,53.80
2018-07-02T23:51:11.056Z,53.90
2018-07-02T23:53:38.224Z,53.60
2018-07-02T23:56:05.870Z,53.40
2018-07-02T23:58:33.101Z,53.90
